Time;durP1;ratioP1;P1;durP2;ratioP2;P2;SDS_P1;SDS_P2;PMS_P1;PMS_P2;Temp;Humidity;BMP_temperature;BMP_pressure;BME280_temperature;BME280_humidity;BME280_pressure;Samples;Min_cycle;Max_cycle;Signal;HPM_P1;HPM_P2
2022/08/01 00:01:06;;;;;;;2.40;1.92;;;20.90;99.90;;;;;;4976048;28;20207;-86
2022/08/01 00:03:32;;;;;;;3.08;2.03;;;20.90;99.90;;;;;;4976076;28;20212;-86
2022/08/01 00:05:58;;;;;;;2.33;2.03;;;20.90;99.90;;;;;;4976271;28;20204;-86
2022/08/01 00:08:23;;;;;;;2.60;1.92;;;20.90;99.90;;;;;;4976061;28;20246;-86
2022/08/01 00:10:49;;;;;;;1.90;1.80;;;20.90;99.90;;;;;;4975936;28;20200;-86
2022/08/01 00:13:15;;;;;;;2.30;2.10;;;20.90;99.90;;;;;;4975915;28;20724;-86
2022/08/01 00:15:41;;;;;;;2.72;1.83;;;20.80;99.90;;;;;;4991570;28;20176;-86
2022/08/01 00:18:07;;;;;;;2.30;2.03;;;20.70;99.90;;;;;;4992207;28;20276;-86
2022/08/01 00:20:33;;;;;;;3.13;2.03;;;20.70;99.90;;;;;;4975586;28;20210;-86
2022/08/01 00:23:01;;;;;;;2.22;2.03;;;20.60;99.90;;;;;;4992020;28;20192;-86
2022/08/01 00:25:27;;;;;;;3.00;1.80;;;20.60;99.90;;;;;;4992008;28;20259;-86
2022/08/01 00:27:54;;;;;;;2.35;2.10;;;20.40;99.90;;;;;;4991997;28;20275;-86
2022/08/01 00:30:20;;;;;;;2.90;2.10;;;20.40;99.90;;;;;;4991529;28;20235;-86
2022/08/01 00:32:45;;;;;;;2.20;2.00;;;20.30;99.90;;;;;;4991916;28;20214;-86
2022/08/01 00:35:11;;;;;;;2.88;2.28;;;20.40;99.90;;;;;;4991856;28;20187;-86
2022/08/01 00:37:37;;;;;;;3.05;2.10;;;20.30;99.90;;;;;;4992063;28;20271;-86
2022/08/01 00:40:04;;;;;;;4.63;2.30;;;20.40;99.90;;;;;;4991448;28;20179;-86
2022/08/01 00:42:30;;;;;;;2.55;2.00;;;20.30;99.90;;;;;;4991708;28;20184;-86
2022/08/01 00:44:56;;;;;;;3.67;2.10;;;20.20;99.90;;;;;;4991638;28;20208;-86
2022/08/01 00:47:22;;;;;;;3.35;2.10;;;20.10;99.90;;;;;;4991797;28;20180;-86
2022/08/01 00:49:48;;;;;;;2.85;2.30;;;20.00;99.90;;;;;;4992767;28;20195;-85
2022/08/01 00:52:14;;;;;;;2.30;2.10;;;19.90;99.90;;;;;;4978129;28;20209;-86
2022/08/01 00:54:40;;;;;;;2.55;2.35;;;19.90;99.90;;;;;;4972146;28;20723;-86
2022/08/01 00:57:06;;;;;;;2.40;2.20;;;19.80;99.90;;;;;;4972044;28;20185;-86
2022/08/01 00:59:34;;;;;;;2.30;2.00;;;19.70;99.90;;;;;;4972481;28;20181;-86
2022/08/01 01:02:00;;;;;;;2.00;1.90;;;19.70;99.90;;;;;;4988197;28;20215;-86
2022/08/01 01:04:26;;;;;;;3.55;2.13;;;19.60;99.90;;;;;;4972405;28;20224;-86
2022/08/01 01:07:12;;;;;;;2.53;2.30;;;19.60;99.90;;;;;;4972181;28;20234;-86
2022/08/01 01:10:00;;;;;;;2.55;2.35;;;19.50;99.90;;;;;;4972243;28;20706;-85
2022/08/01 01:12:46;;;;;;;2.50;2.30;;;19.50;99.90;;;;;;4972400;28;20211;-86
2022/08/01 01:15:36;;;;;;;2.85;2.30;;;19.30;99.90;;;;;;4971931;28;20276;-86
2022/08/01 01:18:16;;;;;;;2.45;2.25;;;19.30;99.90;;;;;;4971739;28;20180;-86
2022/08/01 01:21:18;;;;;;;3.05;2.50;;;19.30;99.90;;;;;;4971861;28;20188;-85
2022/08/01 01:24:21;;;;;;;3.15;2.35;;;19.30;99.90;;;;;;4972747;28;20696;-86
2022/08/01 01:27:05;;;;;;;2.30;2.10;;;19.10;99.90;;;;;;4975838;28;20175;-86
2022/08/01 01:29:33;;;;;;;2.47;2.20;;;19.00;99.90;;;;;;4975754;28;20169;-86
2022/08/01 01:32:18;;;;;;;2.88;2.20;;;19.00;99.90;;;;;;4979025;28;20192;-86
2022/08/01 01:34:46;;;;;;;2.53;2.22;;;18.80;99.90;;;;;;4995183;28;20207;-86
2022/08/01 01:37:17;;;;;;;2.83;2.55;;;18.80;99.90;;;;;;4995375;28;20188;-85
2022/08/01 01:39:44;;;;;;;4.05;2.40;;;18.90;99.90;;;;;;4995098;28;20192;-86
2022/08/01 01:42:10;;;;;;;3.22;2.20;;;18.90;99.90;;;;;;4994344;28;20211;-86
2022/08/01 01:44:38;;;;;;;2.50;2.30;;;18.90;99.90;;;;;;4995097;28;20246;-86
2022/08/01 01:47:06;;;;;;;2.70;2.50;;;18.80;99.90;;;;;;4996081;28;20188;-85
2022/08/01 01:49:33;;;;;;;2.45;2.25;;;18.80;99.90;;;;;;4978792;28;20276;-86
2022/08/01 01:52:01;;;;;;;2.67;2.30;;;18.80;99.90;;;;;;4978561;28;20282;-86
2022/08/01 01:54:35;;;;;;;2.60;2.40;;;18.70;99.90;;;;;;4998547;28;20230;-85
2022/08/01 01:57:03;;;;;;;2.97;2.20;;;18.70;99.90;;;;;;5011950;28;20167;-86
2022/08/01 01:59:32;;;;;;;4.68;2.45;;;18.70;99.90;;;;;;4994189;28;20279;-86
2022/08/01 02:02:02;;;;;;;2.85;2.30;;;18.60;99.90;;;;;;4994284;28;20226;-86
2022/08/01 02:04:29;;;;;;;2.80;2.60;;;18.70;99.90;;;;;;4994469;28;20208;-86
2022/08/01 02:06:57;;;;;;;3.15;2.42;;;18.60;99.90;;;;;;4993176;28;20176;-86
2022/08/01 02:09:25;;;;;;;2.45;2.22;;;18.70;99.90;;;;;;4994546;28;20183;-86
2022/08/01 02:11:52;;;;;;;2.85;2.53;;;18.60;99.90;;;;;;4993933;28;20251;-86
2022/08/01 02:14:19;;;;;;;2.60;2.40;;;18.60;99.90;;;;;;4994469;28;20279;-86
2022/08/01 02:16:49;;;;;;;3.00;2.60;;;18.50;99.90;;;;;;4994417;28;20241;-86
2022/08/01 02:19:19;;;;;;;2.97;2.50;;;18.50;99.90;;;;;;4978185;28;20212;-86
2022/08/01 02:22:01;;;;;;;2.37;2.17;;;18.50;99.90;;;;;;4977847;28;20261;-86
2022/08/01 02:24:48;;;;;;;4.30;2.50;;;18.50;99.90;;;;;;4978252;28;20289;-85
2022/08/01 02:27:21;;;;;;;2.80;2.60;;;18.40;99.90;;;;;;4978355;28;20173;-86
2022/08/01 02:30:04;;;;;;;2.97;2.78;;;18.30;99.90;;;;;;4977871;28;20172;-86
2022/08/01 02:32:54;;;;;;;2.70;2.50;;;18.30;99.90;;;;;;4993955;28;20168;-85
2022/08/01 02:35:33;;;;;;;2.80;2.60;;;18.30;99.90;;;;;;4976570;28;20176;-86
2022/08/01 02:38:01;;;;;;;4.00;2.67;;;18.30;99.90;;;;;;4994245;28;20182;-86
2022/08/01 02:40:29;;;;;;;2.80;2.43;;;18.30;99.90;;;;;;4993793;28;20224;-85
2022/08/01 02:42:57;;;;;;;3.23;2.63;;;18.20;99.90;;;;;;4993815;28;20186;-86
2022/08/01 02:45:26;;;;;;;2.80;2.60;;;18.20;99.90;;;;;;4977654;28;20246;-86
2022/08/01 02:47:57;;;;;;;2.80;2.60;;;18.20;99.90;;;;;;4995216;28;20174;-85
2022/08/01 02:50:25;;;;;;;3.43;2.80;;;18.20;99.90;;;;;;4994026;28;20250;-85
2022/08/01 02:52:54;;;;;;;3.40;2.90;;;18.20;99.90;;;;;;4977787;28;20191;-86
2022/08/01 02:55:20;;;;;;;2.90;2.60;;;18.00;99.90;;;;;;4993699;28;20230;-86
2022/08/01 02:57:49;;;;;;;4.30;2.60;;;17.90;99.90;;;;;;4993683;28;20182;-85
2022/08/01 03:00:16;;;;;;;3.87;2.80;;;17.90;99.90;;;;;;4993292;28;20212;-85
2022/08/01 03:02:44;;;;;;;3.67;3.00;;;17.80;99.90;;;;;;4993984;28;20203;-86
2022/08/01 03:05:12;;;;;;;3.37;3.07;;;17.80;99.90;;;;;;4992633;28;20220;-86
2022/08/01 03:07:39;;;;;;;3.43;3.13;;;17.80;99.90;;;;;;4977075;28;20211;-86
2022/08/01 03:10:06;;;;;;;3.27;2.70;;;17.60;99.90;;;;;;4993080;28;20182;-86
2022/08/01 03:12:34;;;;;;;3.50;2.83;;;17.60;99.90;;;;;;4993372;28;20330;-86
2022/08/01 03:15:02;;;;;;;3.33;2.70;;;17.60;99.90;;;;;;4993487;28;20187;-86
2022/08/01 03:17:30;;;;;;;3.83;3.20;;;17.60;99.90;;;;;;4977542;28;20172;-86
2022/08/01 03:20:02;;;;;;;3.27;2.97;;;17.60;99.90;;;;;;4976993;28;20183;-86
2022/08/01 03:22:30;;;;;;;2.90;2.60;;;17.50;99.90;;;;;;4976949;28;20195;-85
2022/08/01 03:25:00;;;;;;;2.70;2.50;;;17.50;99.90;;;;;;4992621;28;20208;-86
2022/08/01 03:27:27;;;;;;;2.90;2.70;;;17.50;99.90;;;;;;4993090;28;20270;-85
2022/08/01 03:29:56;;;;;;;3.03;2.73;;;17.50;99.90;;;;;;4993137;28;20260;-85
2022/08/01 03:32:24;;;;;;;3.00;2.50;;;17.50;99.90;;;;;;4993185;28;20172;-86
2022/08/01 03:34:50;;;;;;;3.70;3.13;;;17.60;99.90;;;;;;4993018;28;20274;-85
2022/08/01 03:37:29;;;;;;;4.47;2.70;;;17.60;99.90;;;;;;4992927;28;20188;-85
2022/08/01 03:40:26;;;;;;;3.60;3.07;;;17.60;99.90;;;;;;4976279;28;20232;-86
2022/08/01 03:42:58;;;;;;;2.63;2.43;;;17.60;99.90;;;;;;4985442;28;20227;-86
2022/08/01 03:45:30;;;;;;;2.87;2.67;;;17.50;99.90;;;;;;4992812;28;20208;-86
2022/08/01 03:48:01;;;;;;;4.97;3.17;;;17.40;99.90;;;;;;4976316;28;20697;-86
2022/08/01 03:50:29;;;;;;;3.30;3.00;;;17.30;99.90;;;;;;4982819;28;20275;-86
2022/08/01 03:52:58;;;;;;;3.43;2.90;;;17.20;99.90;;;;;;4991887;28;20191;-86
2022/08/01 03:55:25;;;;;;;3.30;2.73;;;17.10;99.90;;;;;;4993357;28;20185;-85
2022/08/01 03:57:52;;;;;;;3.87;2.83;;;17.10;99.90;;;;;;4991868;28;20273;-86
2022/08/01 04:00:22;;;;;;;3.00;2.80;;;17.10;99.90;;;;;;4991003;28;20204;-85
2022/08/01 04:02:49;;;;;;;3.17;2.87;;;17.10;99.90;;;;;;4976008;28;20188;-86
2022/08/01 04:05:16;;;;;;;2.80;2.60;;;17.10;99.90;;;;;;4975886;28;20805;-85
2022/08/01 04:07:46;;;;;;;3.90;2.97;;;17.10;99.90;;;;;;4992453;28;20203;-86
2022/08/01 04:10:13;;;;;;;3.33;2.90;;;17.10;99.90;;;;;;4976123;28;20179;-86
2022/08/01 04:12:38;;;;;;;3.17;2.87;;;17.00;99.90;;;;;;4992467;28;20216;-86
2022/08/01 04:15:05;;;;;;;5.47;3.13;;;17.00;99.90;;;;;;4992266;28;20254;-86
2022/08/01 04:17:31;;;;;;;4.60;3.07;;;17.00;99.90;;;;;;4976424;28;20231;-85
2022/08/01 04:19:57;;;;;;;3.43;3.10;;;16.90;99.90;;;;;;4992006;28;20215;-86
2022/08/01 04:22:23;;;;;;;4.87;3.60;;;16.80;99.90;;;;;;4975821;28;20184;-86
2022/08/01 04:24:53;;;;;;;3.47;3.17;;;16.80;99.90;;;;;;4976182;28;20289;-85
2022/08/01 04:27:32;;;;;;;5.60;3.37;;;16.70;99.90;;;;;;4992006;28;20195;-86
2022/08/01 04:30:00;;;;;;;3.40;3.10;;;16.70;99.90;;;;;;4991818;28;20160;-86
2022/08/01 04:32:30;;;;;;;4.20;3.30;;;16.70;99.90;;;;;;4994909;28;20217;-86
2022/08/01 04:34:59;;;;;;;3.47;3.23;;;16.70;99.90;;;;;;5011508;28;20175;-86
2022/08/01 04:37:28;;;;;;;3.97;3.23;;;16.70;99.90;;;;;;5011513;28;20188;-86
2022/08/01 04:39:56;;;;;;;3.73;3.43;;;16.70;99.90;;;;;;5011284;28;20179;-86
2022/08/01 04:42:22;;;;;;;3.37;2.80;;;16.80;99.90;;;;;;5028074;28;20270;-85
2022/08/01 04:44:48;;;;;;;3.60;3.30;;;17.00;99.90;;;;;;4997857;28;20294;-85
2022/08/01 04:47:14;;;;;;;3.50;3.20;;;17.00;99.90;;;;;;4976564;28;20180;-86
2022/08/01 04:49:41;;;;;;;4.30;3.00;;;17.10;99.90;;;;;;5005022;28;20164;-85
2022/08/01 04:52:07;;;;;;;3.30;3.00;;;17.10;99.90;;;;;;4997360;28;20191;-85
2022/08/01 04:54:36;;;;;;;3.87;3.20;;;17.20;99.90;;;;;;5014486;28;20188;-85
2022/08/01 04:57:06;;;;;;;3.57;3.27;;;17.40;99.90;;;;;;5002621;28;20207;-85
2022/08/01 04:59:40;;;;;;;3.80;3.50;;;17.40;99.90;;;;;;4974686;28;20177;-85
2022/08/01 05:02:22;;;;;;;4.07;3.47;;;17.50;99.90;;;;;;4974367;28;20195;-85
2022/08/01 05:04:48;;;;;;;3.53;3.13;;;17.60;99.90;;;;;;4991365;28;20219;-86
2022/08/01 05:07:15;;;;;;;4.90;3.40;;;17.60;99.90;;;;;;4975532;28;20279;-85
2022/08/01 05:09:42;;;;;;;3.67;3.37;;;17.70;99.90;;;;;;4975278;28;20191;-85
2022/08/01 05:12:10;;;;;;;4.93;3.60;;;17.80;99.90;;;;;;4991370;28;20211;-85
2022/08/01 05:14:36;;;;;;;4.23;3.67;;;17.80;99.90;;;;;;4994486;28;20190;-85
2022/08/01 05:17:04;;;;;;;4.30;3.07;;;17.90;99.90;;;;;;5015904;28;20215;-85
2022/08/01 05:19:33;;;;;;;3.77;3.37;;;18.00;99.90;;;;;;5000765;28;20188;-85
2022/08/01 05:22:06;;;;;;;3.80;3.50;;;18.10;99.90;;;;;;4998646;28;20344;-85
2022/08/01 05:24:38;;;;;;;3.20;3.00;;;18.20;99.90;;;;;;4981091;28;20275;-85
2022/08/01 05:27:07;;;;;;;3.40;3.10;;;18.20;99.90;;;;;;4995315;28;20163;-85
2022/08/01 05:29:34;;;;;;;3.60;3.30;;;18.30;99.90;;;;;;5001992;28;20226;-85
2022/08/01 05:32:00;;;;;;;3.63;3.33;;;18.20;99.90;;;;;;5008866;28;20301;-85
2022/08/01 05:34:27;;;;;;;3.40;3.10;;;18.30;99.90;;;;;;5001544;28;20263;-85
2022/08/01 05:36:55;;;;;;;5.27;3.23;;;18.30;99.90;;;;;;4982652;28;20182;-85
2022/08/01 05:39:21;;;;;;;5.27;3.20;;;18.20;99.90;;;;;;4988466;28;20176;-85
2022/08/01 05:41:46;;;;;;;3.63;3.33;;;18.30;99.90;;;;;;4994602;28;20283;-85
2022/08/01 05:44:12;;;;;;;6.07;3.50;;;18.30;99.90;;;;;;4974816;28;20242;-85
2022/08/01 05:46:38;;;;;;;5.00;3.33;;;18.40;99.90;;;;;;4991283;28;20196;-85
2022/08/01 05:49:05;;;;;;;3.70;3.37;;;18.50;99.90;;;;;;4975126;28;20214;-85
2022/08/01 05:51:31;;;;;;;5.43;3.72;;;18.50;99.90;;;;;;4974576;28;20202;-85
2022/08/01 05:53:57;;;;;;;3.80;3.00;;;18.60;99.90;;;;;;4974985;28;20630;-85
2022/08/01 05:56:25;;;;;;;5.53;3.38;;;18.70;99.90;;;;;;4990612;28;20180;-84
2022/08/01 05:58:51;;;;;;;5.35;3.50;;;18.90;99.90;;;;;;4991176;28;20177;-85
2022/08/01 06:01:18;;;;;;;3.55;3.22;;;19.00;99.90;;;;;;4990557;28;20266;-85
2022/08/01 06:03:45;;;;;;;4.55;3.42;;;19.20;99.90;;;;;;4974916;28;20208;-85
2022/08/01 06:06:11;;;;;;;5.30;3.75;;;19.40;99.90;;;;;;4992495;28;20167;-85
2022/08/01 06:08:37;;;;;;;4.43;3.53;;;19.50;99.90;;;;;;4991137;28;20184;-84
2022/08/01 06:11:03;;;;;;;5.13;3.80;;;19.60;99.90;;;;;;4977803;28;20200;-85
2022/08/01 06:13:29;;;;;;;6.28;3.38;;;19.80;99.90;;;;;;4998403;28;20191;-84
2022/08/01 06:15:54;;;;;;;5.13;3.55;;;19.90;99.90;;;;;;4996191;28;20183;-85
2022/08/01 06:18:20;;;;;;;4.45;3.67;;;20.00;99.90;;;;;;4994843;28;20180;-85
2022/08/01 06:20:47;;;;;;;3.60;3.30;;;20.20;99.90;;;;;;4994264;28;20198;-84
2022/08/01 06:23:15;;;;;;;5.43;3.38;;;20.30;99.90;;;;;;4994544;28;20176;-85
2022/08/01 06:25:43;;;;;;;4.90;3.40;;;20.40;99.90;;;;;;4994072;28;20179;-85
2022/08/01 06:28:09;;;;;;;8.05;3.83;;;20.50;99.90;;;;;;4994442;28;20176;-86
2022/08/01 06:30:35;;;;;;;4.22;3.65;;;20.60;99.90;;;;;;4994358;28;20204;-86
2022/08/01 06:33:02;;;;;;;3.83;3.42;;;20.70;99.90;;;;;;4978023;28;20186;-85
2022/08/01 06:35:29;;;;;;;3.78;3.05;;;20.80;99.90;;;;;;4978058;28;20279;-86
2022/08/01 06:37:56;;;;;;;4.38;3.55;;;20.90;99.90;;;;;;4978275;28;20176;-88
2022/08/01 06:40:22;;;;;;;4.05;3.15;;;21.10;99.90;;;;;;4994561;28;20287;-86
2022/08/01 06:42:48;;;;;;;3.70;3.40;;;21.20;99.90;;;;;;4977714;28;20264;-86
2022/08/01 06:45:15;;;;;;;4.80;3.90;;;21.40;99.90;;;;;;4994237;28;20258;-86
2022/08/01 06:47:43;;;;;;;5.05;3.58;;;21.50;99.90;;;;;;4977939;28;20172;-87
2022/08/01 06:50:09;;;;;;;3.80;3.50;;;21.70;99.90;;;;;;4977438;28;20180;-86
2022/08/01 06:52:36;;;;;;;4.47;3.40;;;21.80;99.90;;;;;;4977382;28;20706;-87
2022/08/01 06:55:03;;;;;;;5.32;3.85;;;21.90;99.90;;;;;;5009998;28;20179;-86
2022/08/01 06:57:29;;;;;;;4.03;3.22;;;22.10;99.90;;;;;;4993827;28;20183;-87
2022/08/01 06:59:55;;;;;;;3.60;3.10;;;22.30;99.90;;;;;;4993664;28;20184;-87
2022/08/01 07:02:22;;;;;;;3.78;3.35;;;22.40;99.90;;;;;;4993918;28;20176;-86
2022/08/01 07:04:48;;;;;;;3.92;3.25;;;22.40;99.90;;;;;;4977539;28;20290;-87
2022/08/01 07:07:14;;;;;;;3.40;3.10;;;22.50;99.90;;;;;;4977292;28;20180;-86
2022/08/01 07:09:42;;;;;;;5.47;3.30;;;22.70;99.90;;;;;;4977414;28;20282;-86
2022/08/01 07:12:08;;;;;;;4.10;3.20;;;22.70;99.90;;;;;;4977138;28;20203;-87
2022/08/01 07:14:34;;;;;;;4.47;3.42;;;22.70;99.90;;;;;;4993510;28;20270;-86
2022/08/01 07:17:00;;;;;;;4.15;3.38;;;22.80;99.90;;;;;;4977885;28;20266;-85
2022/08/01 07:19:27;;;;;;;3.65;3.35;;;22.80;99.90;;;;;;4971597;28;20264;-86
2022/08/01 07:21:53;;;;;;;4.57;3.40;;;22.90;99.90;;;;;;4973485;28;20232;-86
2022/08/01 07:24:20;;;;;;;4.85;3.33;;;23.00;99.90;;;;;;4973937;28;20216;-86
2022/08/01 07:26:49;;;;;;;4.30;3.13;;;23.00;99.90;;;;;;5002464;28;20206;-86
2022/08/01 07:29:15;;;;;;;3.83;3.40;;;23.20;99.90;;;;;;5016567;28;20207;-86
2022/08/01 07:31:41;;;;;;;3.50;3.15;;;23.40;99.90;;;;;;4992112;28;20203;-86
2022/08/01 07:34:07;;;;;;;3.45;3.13;;;23.60;99.90;;;;;;4991533;28;20187;-86
2022/08/01 07:36:33;;;;;;;4.15;3.20;;;23.80;99.90;;;;;;4987262;28;20183;-86
2022/08/01 07:39:01;;;;;;;3.60;3.30;;;24.00;99.90;;;;;;4986077;28;20184;-87
2022/08/01 07:41:30;;;;;;;3.42;3.10;;;24.20;99.90;;;;;;4993920;28;20206;-87
2022/08/01 07:43:57;;;;;;;3.67;2.65;;;24.30;99.90;;;;;;4990380;28;20761;-87
2022/08/01 07:46:23;;;;;;;3.85;2.85;;;24.30;99.90;;;;;;4994449;28;20255;-86
2022/08/01 07:48:49;;;;;;;3.80;3.10;;;24.50;99.90;;;;;;4977303;28;20184;-87
2022/08/01 07:51:15;;;;;;;2.90;2.60;;;24.60;99.90;;;;;;4977952;28;20207;-86
2022/08/01 07:53:41;;;;;;;2.83;2.53;;;24.60;99.90;;;;;;4971222;28;20179;-78
2022/08/01 07:56:11;;;;;;;2.67;2.47;;;24.70;99.90;;;;;;4992256;28;20207;-77
2022/08/01 07:58:40;;;;;;;4.68;2.70;;;24.90;99.90;;;;;;4996091;28;20195;-77
2022/08/01 08:01:08;;;;;;;3.83;2.70;;;25.10;99.90;;;;;;4977242;28;20208;-86
2022/08/01 08:03:39;;;;;;;3.67;2.63;;;25.20;99.90;;;;;;4982279;28;20701;-86
2022/08/01 08:06:06;;;;;;;3.33;2.88;;;25.30;99.90;;;;;;5021386;28;20252;-87
2022/08/01 08:08:35;;;;;;;3.10;2.80;;;25.50;99.90;;;;;;4991690;28;20238;-87
2022/08/01 08:11:01;;;;;;;3.00;2.72;;;25.60;99.90;;;;;;4995774;28;20195;-86
2022/08/01 08:13:27;;;;;;;4.65;2.75;;;25.70;99.90;;;;;;4996761;28;20183;-86
2022/08/01 08:15:53;;;;;;;3.03;2.60;;;25.80;99.90;;;;;;4994400;28;20180;-86
2022/08/01 08:18:19;;;;;;;3.17;2.83;;;25.90;99.90;;;;;;4993128;28;20653;-88
2022/08/01 08:20:45;;;;;;;2.50;2.30;;;26.10;99.90;;;;;;4975785;28;20208;-86
2022/08/01 08:25:58;;;;;;;2.80;2.60;;;26.40;99.90;;;;;;4992890;28;20192;-88
2022/08/01 08:28:25;;;;;;;3.70;2.85;;;26.60;99.90;;;;;;4990180;28;20174;-87
2022/08/01 08:30:55;;;;;;;4.85;2.90;;;26.70;99.90;;;;;;5023412;28;20200;-87
2022/08/01 08:33:21;;;;;;;4.07;2.80;;;26.60;99.90;;;;;;4992195;28;20222;-87
2022/08/01 08:35:47;;;;;;;3.63;2.92;;;26.70;99.90;;;;;;4995050;28;20254;-87
2022/08/01 08:38:25;;;;;;;2.95;2.75;;;26.90;99.90;;;;;;4972645;28;20184;-87
2022/08/01 08:40:52;;;;;;;2.80;2.60;;;27.20;99.90;;;;;;4981186;28;20215;-88
2022/08/01 08:43:21;;;;;;;2.83;2.63;;;27.40;99.90;;;;;;4992015;28;20232;-87
2022/08/01 08:45:47;;;;;;;4.03;3.40;;;27.40;99.90;;;;;;5002522;28;20255;-87
2022/08/01 08:48:15;;;;;;;3.50;3.20;;;27.10;99.90;;;;;;5006097;28;20176;-87
2022/08/01 08:50:43;;;;;;;3.88;2.83;;;27.20;99.90;;;;;;4999507;28;20226;-87
2022/08/01 08:53:09;;;;;;;3.00;2.70;;;27.30;99.90;;;;;;5008881;28;20339;-87
2022/08/01 08:55:37;;;;;;;3.65;2.60;;;27.30;99.90;;;;;;4975735;28;20211;-87
2022/08/01 08:58:05;;;;;;;3.75;3.45;;;27.30;99.90;;;;;;4973167;28;20191;-87
2022/08/01 09:00:45;;;;;;;4.22;3.83;;;27.30;99.90;;;;;;4972677;28;20216;-85
2022/08/01 09:03:12;;;;;;;4.45;3.90;;;27.20;99.90;;;;;;4974198;28;20191;-85
2022/08/01 09:05:38;;;;;;;6.80;4.40;;;27.00;99.90;;;;;;4975940;28;20211;-85
2022/08/01 09:08:08;;;;;;;3.40;3.10;;;27.00;99.90;;;;;;4975787;28;20191;-85
2022/08/01 09:10:35;;;;;;;3.60;3.28;;;27.00;99.90;;;;;;5000968;28;20244;-87
2022/08/01 09:13:10;;;;;;;3.22;2.92;;;27.10;99.90;;;;;;4972687;28;20181;-87
2022/08/01 09:15:53;;;;;;;5.35;3.75;;;27.00;99.90;;;;;;4990760;28;20183;-87
2022/08/01 09:18:34;;;;;;;4.05;3.22;;;26.90;99.90;;;;;;4987637;28;20175;-86
2022/08/01 09:21:09;;;;;;;4.47;3.05;;;26.80;99.90;;;;;;4989957;28;20215;-87
2022/08/01 09:23:39;;;;;;;3.10;2.80;;;26.80;99.90;;;;;;5000156;28;20191;-87
2022/08/01 09:26:06;;;;;;;4.93;2.67;;;26.70;99.90;;;;;;4991924;28;20657;-87
2022/08/01 09:28:32;;;;;;;3.13;2.60;;;26.90;99.90;;;;;;4992006;28;20176;-87
2022/08/01 09:30:58;;;;;;;4.47;3.40;;;27.00;99.90;;;;;;5007756;28;20204;-87
2022/08/01 09:33:25;;;;;;;5.50;3.33;;;26.90;99.90;;;;;;4991902;28;20180;-87
2022/08/01 09:35:57;;;;;;;4.85;2.92;;;26.90;99.90;;;;;;4992200;28;20176;-86
2022/08/01 09:38:27;;;;;;;2.80;2.60;;;26.90;99.90;;;;;;4995008;28;20241;-87
2022/08/01 09:40:55;;;;;;;4.30;2.70;;;27.00;99.90;;;;;;4986203;28;20205;-87
2022/08/01 09:43:24;;;;;;;2.78;2.58;;;27.40;99.90;;;;;;4977604;28;20242;-87
2022/08/01 09:45:50;;;;;;;3.00;2.80;;;27.70;99.90;;;;;;5013685;28;20184;-87
2022/08/01 09:48:16;;;;;;;3.45;2.80;;;27.80;99.90;;;;;;5009180;28;20172;-87
2022/08/01 09:50:47;;;;;;;2.95;2.75;;;28.00;99.90;;;;;;4998561;28;20206;-87
2022/08/01 09:53:15;;;;;;;3.00;2.80;;;27.80;99.90;;;;;;4997199;28;20157;-87
2022/08/01 09:55:42;;;;;;;2.80;2.60;;;27.80;99.90;;;;;;5014911;28;20187;-87
2022/08/01 09:58:10;;;;;;;2.72;2.53;;;27.80;99.90;;;;;;5014913;28;20582;-87
2022/08/01 10:00:37;;;;;;;3.13;2.90;;;27.70;99.90;;;;;;5009098;28;20278;-86
2022/08/01 10:03:23;;;;;;;3.03;2.80;;;27.60;99.90;;;;;;5015173;28;20230;-87
2022/08/01 10:05:51;;;;;;;3.80;2.58;;;27.60;99.90;;;;;;5015404;28;20190;-87
2022/08/01 10:08:17;;;;;;;3.67;2.67;;;27.50;99.90;;;;;;5006440;28;20262;-87
2022/08/01 10:11:06;;;;;;;2.80;2.60;;;27.50;99.90;;;;;;4978249;28;20195;-87
2022/08/01 10:13:32;;;;;;;2.88;2.67;;;27.80;99.90;;;;;;4988645;28;20186;-87
2022/08/01 10:16:00;;;;;;;2.63;2.42;;;28.00;99.90;;;;;;4995829;28;20172;-88
2022/08/01 10:18:27;;;;;;;2.80;2.60;;;28.20;99.90;;;;;;5005418;28;20191;-85
2022/08/01 10:20:54;;;;;;;3.58;3.00;;;28.00;99.90;;;;;;4987675;28;20200;-87
2022/08/01 10:23:21;;;;;;;2.85;2.65;;;27.80;99.90;;;;;;5014966;28;20380;-87
2022/08/01 10:25:50;;;;;;;3.25;2.53;;;27.70;99.90;;;;;;5014762;28;20241;-87
2022/08/01 10:28:18;;;;;;;2.83;2.63;;;27.60;99.90;;;;;;4998841;28;20176;-87
2022/08/01 10:30:45;;;;;;;3.20;2.95;;;27.60;99.90;;;;;;4994849;28;20399;-87
2022/08/01 10:33:11;;;;;;;2.72;2.53;;;27.70;99.90;;;;;;4995064;28;20180;-87
2022/08/01 10:35:41;;;;;;;2.95;2.75;;;27.90;99.90;;;;;;4978330;28;20183;-87
2022/08/01 10:38:07;;;;;;;2.72;2.53;;;28.00;99.90;;;;;;4978983;28;20172;-87
2022/08/01 10:40:35;;;;;;;2.83;2.63;;;28.20;99.90;;;;;;4994717;28;20226;-87
2022/08/01 10:43:02;;;;;;;3.03;2.72;;;28.00;99.40;;;;;;4977803;28;20203;-86
2022/08/01 10:45:29;;;;;;;2.80;2.60;;;28.10;99.90;;;;;;4993541;28;20218;-87
2022/08/01 10:48:14;;;;;;;3.47;2.67;;;28.00;99.60;;;;;;4978359;28;20177;-87
2022/08/01 10:50:42;;;;;;;3.42;2.85;;;27.80;99.70;;;;;;4998121;28;20226;-87
2022/08/01 10:53:17;;;;;;;3.47;3.17;;;27.70;99.90;;;;;;5000263;28;20235;-87
2022/08/01 10:56:00;;;;;;;3.05;2.65;;;27.70;99.90;;;;;;4981253;28;20203;-87
2022/08/01 10:58:32;;;;;;;2.85;2.65;;;27.80;99.80;;;;;;5013650;28;20279;-86
2022/08/01 11:01:26;;;;;;;2.80;2.60;;;27.80;99.90;;;;;;4998766;28;20263;-87
2022/08/01 11:04:11;;;;;;;2.95;2.50;;;27.90;99.90;;;;;;4994187;28;20330;-87
2022/08/01 11:06:40;;;;;;;3.13;2.83;;;27.80;99.90;;;;;;4981634;28;20226;-87
2022/08/01 11:09:12;;;;;;;2.35;2.15;;;27.80;99.90;;;;;;4978820;28;20203;-87
2022/08/01 11:11:59;;;;;;;3.92;2.58;;;27.70;99.90;;;;;;4999933;28;20199;-87
2022/08/01 11:14:29;;;;;;;2.45;2.28;;;28.00;99.90;;;;;;4981736;28;20255;-88
2022/08/01 11:16:56;;;;;;;3.00;2.40;;;28.10;99.50;;;;;;4989539;28;20176;-87
2022/08/01 11:19:22;;;;;;;2.85;2.65;;;28.30;99.90;;;;;;4996662;28;20188;-87
2022/08/01 11:22:03;;;;;;;2.95;2.65;;;28.60;99.50;;;;;;4980734;28;20227;-87
2022/08/01 11:24:50;;;;;;;3.15;2.80;;;28.80;98.30;;;;;;5009933;28;20295;-87
2022/08/01 11:27:30;;;;;;;2.60;2.35;;;28.80;98.00;;;;;;4977800;28;20243;-87
2022/08/01 11:30:10;;;;;;;3.20;2.90;;;28.70;97.40;;;;;;4998881;28;20196;-87
2022/08/01 11:32:58;;;;;;;3.00;2.70;;;28.60;97.20;;;;;;5014042;28;20171;-87
2022/08/01 11:35:36;;;;;;;2.70;2.50;;;28.40;98.80;;;;;;5029714;28;20740;-89
2022/08/01 11:38:27;;;;;;;2.70;2.50;;;28.00;99.60;;;;;;5012546;28;20182;-87
2022/08/01 11:41:17;;;;;;;3.30;3.00;;;27.80;99.90;;;;;;5001519;28;20278;-87
2022/08/01 11:43:59;;;;;;;2.80;2.60;;;27.80;99.90;;;;;;4998031;28;20253;-87
2022/08/01 11:46:48;;;;;;;3.72;2.60;;;27.70;99.90;;;;;;4998590;28;20198;-87
2022/08/01 11:49:34;;;;;;;2.88;2.58;;;27.70;99.90;;;;;;5001969;28;20179;-87
2022/08/01 11:52:07;;;;;;;3.00;2.80;;;27.60;99.90;;;;;;5005604;28;20346;-94
2022/08/01 11:54:40;;;;;;;2.78;2.50;;;27.60;99.90;;;;;;5022077;28;20183;-87
2022/08/01 11:57:12;;;;;;;2.80;2.50;;;27.50;99.90;;;;;;5011900;28;20182;-89
2022/08/01 11:59:59;;;;;;;2.90;2.70;;;27.50;99.90;;;;;;4967469;28;20172;-88
2022/08/01 12:02:28;;;;;;;2.60;2.40;;;27.70;99.90;;;;;;4989769;28;20180;-86
2022/08/01 12:05:11;;;;;;;2.70;2.50;;;27.80;99.90;;;;;;4992611;28;20208;-86
2022/08/01 12:07:41;;;;;;;2.78;2.58;;;28.00;99.90;;;;;;4975986;28;20179;-88
2022/08/01 12:10:09;;;;;;;3.03;2.67;;;28.10;99.90;;;;;;4980575;28;20247;-87
2022/08/01 12:12:37;;;;;;;3.95;2.83;;;28.30;99.90;;;;;;4997848;28;20188;-87
2022/08/01 12:15:09;;;;;;;3.90;2.72;;;28.40;99.90;;;;;;4986234;28;20186;-86
2022/08/01 12:17:41;;;;;;;2.95;2.60;;;28.50;99.90;;;;;;5000844;28;20192;-86
2022/08/01 12:20:09;;;;;;;3.28;3.00;;;28.60;99.90;;;;;;4992123;28;20184;-86
2022/08/01 12:22:37;;;;;;;3.13;2.85;;;28.70;99.80;;;;;;4989236;28;20203;-87
2022/08/01 12:25:13;;;;;;;2.55;2.35;;;28.70;99.90;;;;;;4992213;28;20239;-86
2022/08/01 12:27:43;;;;;;;4.20;3.13;;;28.80;99.90;;;;;;4992096;28;20171;-86
2022/08/01 12:30:11;;;;;;;2.70;2.50;;;29.10;99.90;;;;;;4992939;28;20164;-86
2022/08/01 12:32:39;;;;;;;3.00;2.70;;;29.60;98.60;;;;;;4994832;28;20223;-90
2022/08/01 12:35:05;;;;;;;3.85;3.00;;;29.80;99.30;;;;;;4978315;28;20258;-78
2022/08/01 12:37:41;;;;;;;3.17;2.80;;;30.10;98.10;;;;;;4977057;28;20677;-78
2022/08/01 12:40:14;;;;;;;2.70;2.50;;;30.30;97.80;;;;;;4976268;28;20167;-90
2022/08/01 12:42:45;;;;;;;3.03;2.78;;;30.70;97.30;;;;;;4975913;28;20176;-87
2022/08/01 12:45:17;;;;;;;2.92;2.72;;;30.50;96.40;;;;;;4975795;28;20203;-87
2022/08/01 12:47:43;;;;;;;2.75;2.55;;;30.60;96.50;;;;;;4975963;28;20176;-87
2022/08/01 12:50:23;;;;;;;3.17;2.97;;;30.90;96.40;;;;;;4975742;28;20183;-87
2022/08/01 12:52:50;;;;;;;4.32;2.72;;;31.30;96.10;;;;;;4976055;28;20198;-87
2022/08/01 12:55:21;;;;;;;3.88;2.42;;;31.40;95.70;;;;;;4992237;28;20176;-87
2022/08/01 12:57:52;;;;;;;3.03;2.30;;;31.30;95.30;;;;;;4992391;28;20238;-86
2022/08/01 13:00:25;;;;;;;2.60;2.40;;;31.40;95.50;;;;;;4991741;28;20199;-87
2022/08/01 13:03:05;;;;;;;3.00;2.47;;;31.30;95.70;;;;;;4988712;28;20271;-87
2022/08/01 13:05:54;;;;;;;2.70;2.50;;;31.40;95.60;;;;;;4988096;28;20207;-87